sensor_id;sensor_type;location;lat;lon;timestamp;pressure;altitude;pressure_sealevel;temperature;humidity
64644;BME280;51056;50.330;7.914;2023-01-23T00:01:19;102220.66;;;1.57;90.93
64644;BME280;51056;50.330;7.914;2023-01-23T00:04:23;102236.09;;;1.55;90.81
64644;BME280;51056;50.330;7.914;2023-01-23T00:07:26;102237.88;;;1.56;90.89
64644;BME280;51056;50.330;7.914;2023-01-23T00:10:29;102236.97;;;1.56;91.14
64644;BME280;51056;50.330;7.914;2023-01-23T00:13:33;102219.81;;;1.56;91.02
64644;BME280;51056;50.330;7.914;2023-01-23T00:16:37;102224.97;;;1.56;91.13
64644;BME280;51056;50.330;7.914;2023-01-23T00:19:40;102230.09;;;1.53;91.61
64644;BME280;51056;50.330;7.914;2023-01-23T00:22:44;102230.06;;;1.52;91.34
64644;BME280;51056;50.330;7.914;2023-01-23T00:25:47;102219.75;;;1.52;91.36
64644;BME280;51056;50.330;7.914;2023-01-23T00:28:52;102221.47;;;1.53;91.24
64644;BME280;51056;50.330;7.914;2023-01-23T00:31:56;102218.03;;;1.51;91.41
64644;BME280;51056;50.330;7.914;2023-01-23T00:34:59;102224.06;;;1.54;91.55
64644;BME280;51056;50.330;7.914;2023-01-23T00:38:02;102236.06;;;1.52;91.33
64644;BME280;51056;50.330;7.914;2023-01-23T00:41:06;102231.78;;;1.53;91.49
64644;BME280;51056;50.330;7.914;2023-01-23T00:44:09;102227.50;;;1.53;91.63
64644;BME280;51056;50.330;7.914;2023-01-23T00:47:12;102220.59;;;1.52;91.66
64644;BME280;51056;50.330;7.914;2023-01-23T00:50:15;102222.34;;;1.53;91.33
64644;BME280;51056;50.330;7.914;2023-01-23T00:53:19;102237.78;;;1.50;91.71
64644;BME280;51056;50.330;7.914;2023-01-23T00:56:22;102231.72;;;1.50;91.76
64644;BME280;51056;50.330;7.914;2023-01-23T00:59:26;102243.88;;;1.57;91.71
64644;BME280;51056;50.330;7.914;2023-01-23T01:02:29;102247.31;;;1.57;91.75
64644;BME280;51056;50.330;7.914;2023-01-23T01:05:33;102249.78;;;1.50;91.91
64644;BME280;51056;50.330;7.914;2023-01-23T01:08:37;102241.25;;;1.55;91.54
64644;BME280;51056;50.330;7.914;2023-01-23T01:11:40;102251.56;;;1.55;91.59
64644;BME280;51056;50.330;7.914;2023-01-23T01:14:43;102255.00;;;1.56;91.34
64644;BME280;51056;50.330;7.914;2023-01-23T01:17:46;102255.06;;;1.57;91.55
64644;BME280;51056;50.330;7.914;2023-01-23T01:20:50;102249.84;;;1.56;91.46
64644;BME280;51056;50.330;7.914;2023-01-23T01:23:53;102253.34;;;1.59;91.55
64644;BME280;51056;50.330;7.914;2023-01-23T01:26:56;102256.81;;;1.61;91.52
64644;BME280;51056;50.330;7.914;2023-01-23T01:29:59;102261.13;;;1.62;91.28
64644;BME280;51056;50.330;7.914;2023-01-23T01:33:03;102261.19;;;1.69;90.99
64644;BME280;51056;50.330;7.914;2023-01-23T01:36:11;102250.84;;;1.64;91.04
64644;BME280;51056;50.330;7.914;2023-01-23T01:39:14;102249.91;;;1.57;90.84
64644;BME280;51056;50.330;7.914;2023-01-23T01:42:18;102261.88;;;1.55;91.41
64644;BME280;51056;50.330;7.914;2023-01-23T01:49:09;102280.88;;;1.60;91.20
64644;BME280;51056;50.330;7.914;2023-01-23T01:52:16;102274.84;;;1.60;91.21
64644;BME280;51056;50.330;7.914;2023-01-23T01:55:21;102279.13;;;1.56;91.52
64644;BME280;51056;50.330;7.914;2023-01-23T01:58:26;102279.97;;;1.58;91.24
64644;BME280;51056;50.330;7.914;2023-01-23T02:01:30;102281.69;;;1.59;91.25
64644;BME280;51056;50.330;7.914;2023-01-23T02:04:37;102267.09;;;1.57;91.22
64644;BME280;51056;50.330;7.914;2023-01-23T02:12:01;102276.50;;;1.53;91.37
64644;BME280;51056;50.330;7.914;2023-01-23T02:15:06;102275.59;;;1.53;91.36
64644;BME280;51056;50.330;7.914;2023-01-23T02:18:09;102287.63;;;1.52;91.70
64644;BME280;51056;50.330;7.914;2023-01-23T02:21:15;102285.09;;;1.54;91.40
64644;BME280;51056;50.330;7.914;2023-01-23T02:24:27;102283.41;;;1.59;91.22
64644;BME280;51056;50.330;7.914;2023-01-23T02:27:34;102283.44;;;1.60;91.06
64644;BME280;51056;50.330;7.914;2023-01-23T02:30:38;102289.47;;;1.62;91.14
64644;BME280;51056;50.330;7.914;2023-01-23T02:36:50;102289.44;;;1.56;91.14
64644;BME280;51056;50.330;7.914;2023-01-23T02:39:54;102287.63;;;1.52;90.79
64644;BME280;51056;50.330;7.914;2023-01-23T02:42:59;102298.03;;;1.57;91.43
64644;BME280;51056;50.330;7.914;2023-01-23T02:46:07;102298.88;;;1.59;91.18
64644;BME280;51056;50.330;7.914;2023-01-23T02:49:11;102295.41;;;1.55;91.19
64644;BME280;51056;50.330;7.914;2023-01-23T02:52:14;102301.41;;;1.54;91.29
64644;BME280;51056;50.330;7.914;2023-01-23T02:55:17;102309.16;;;1.54;91.04
64644;BME280;51056;50.330;7.914;2023-01-23T02:58:21;102303.97;;;1.53;91.64
64644;BME280;51056;50.330;7.914;2023-01-23T03:01:42;102309.16;;;1.54;91.58
64644;BME280;51056;50.330;7.914;2023-01-23T03:04:46;102315.22;;;1.59;91.33
64644;BME280;51056;50.330;7.914;2023-01-23T03:07:49;102319.47;;;1.54;91.65
64644;BME280;51056;50.330;7.914;2023-01-23T03:10:52;102316.88;;;1.54;91.76
64644;BME280;51056;50.330;7.914;2023-01-23T03:13:56;102310.06;;;1.59;91.38
64644;BME280;51056;50.330;7.914;2023-01-23T03:16:59;102306.69;;;1.63;91.46
64644;BME280;51056;50.330;7.914;2023-01-23T03:20:07;102315.22;;;1.58;91.14
64644;BME280;51056;50.330;7.914;2023-01-23T03:23:10;102308.38;;;1.61;91.26
64644;BME280;51056;50.330;7.914;2023-01-23T03:26:14;102313.50;;;1.58;90.92
64644;BME280;51056;50.330;7.914;2023-01-23T03:29:22;102316.88;;;1.54;90.93
64644;BME280;51056;50.330;7.914;2023-01-23T03:32:46;102318.53;;;1.49;91.02
64644;BME280;51056;50.330;7.914;2023-01-23T03:35:50;102315.13;;;1.50;91.04
64644;BME280;51056;50.330;7.914;2023-01-23T03:38:53;102319.44;;;1.53;91.21
64644;BME280;51056;50.330;7.914;2023-01-23T03:42:15;102321.19;;;1.54;91.55
64644;BME280;51056;50.330;7.914;2023-01-23T03:45:18;102316.03;;;1.54;91.20
64644;BME280;51056;50.330;7.914;2023-01-23T03:48:21;102316.09;;;1.60;91.15
64644;BME280;51056;50.330;7.914;2023-01-23T03:51:24;102328.16;;;1.62;91.08
64644;BME280;51056;50.330;7.914;2023-01-23T03:54:29;102325.56;;;1.61;90.88
64644;BME280;51056;50.330;7.914;2023-01-23T03:57:32;102321.22;;;1.58;91.09
64644;BME280;51056;50.330;7.914;2023-01-23T04:01:08;102327.25;;;1.59;91.24
64644;BME280;51056;50.330;7.914;2023-01-23T04:04:14;102329.81;;;1.57;91.34
64644;BME280;51056;50.330;7.914;2023-01-23T04:07:18;102327.25;;;1.57;91.13
64644;BME280;51056;50.330;7.914;2023-01-23T04:10:21;102320.38;;;1.58;91.59
64644;BME280;51056;50.330;7.914;2023-01-23T04:13:30;102320.38;;;1.59;91.30
64644;BME280;51056;50.330;7.914;2023-01-23T04:16:34;102320.38;;;1.58;91.24
64644;BME280;51056;50.330;7.914;2023-01-23T04:19:38;102323.75;;;1.55;91.40
64644;BME280;51056;50.330;7.914;2023-01-23T04:22:41;102325.53;;;1.58;91.33
64644;BME280;51056;50.330;7.914;2023-01-23T04:25:47;102324.63;;;1.56;91.53
64644;BME280;51056;50.330;7.914;2023-01-23T04:28:51;102332.34;;;1.54;91.33
64644;BME280;51056;50.330;7.914;2023-01-23T04:31:55;102332.31;;;1.51;91.77
64644;BME280;51056;50.330;7.914;2023-01-23T04:34:58;102328.88;;;1.52;91.71
64644;BME280;51056;50.330;7.914;2023-01-23T04:38:03;102331.50;;;1.55;91.54
64644;BME280;51056;50.330;7.914;2023-01-23T04:41:20;102327.19;;;1.54;91.81
64644;BME280;51056;50.330;7.914;2023-01-23T04:44:25;102323.72;;;1.52;91.77
64644;BME280;51056;50.330;7.914;2023-01-23T04:47:52;102328.00;;;1.50;91.79
64644;BME280;51056;50.330;7.914;2023-01-23T04:50:56;102328.88;;;1.52;91.61
64644;BME280;51056;50.330;7.914;2023-01-23T04:53:59;102330.63;;;1.53;92.06
64644;BME280;51056;50.330;7.914;2023-01-23T04:57:03;102328.06;;;1.55;91.78
64644;BME280;51056;50.330;7.914;2023-01-23T05:00:07;102321.22;;;1.57;91.69
64644;BME280;51056;50.330;7.914;2023-01-23T05:03:13;102313.44;;;1.54;91.69
64644;BME280;51056;50.330;7.914;2023-01-23T05:06:20;102316.94;;;1.57;91.60
64644;BME280;51056;50.330;7.914;2023-01-23T05:09:23;102317.78;;;1.58;91.62
64644;BME280;51056;50.330;7.914;2023-01-23T05:12:29;102321.19;;;1.55;91.61
64644;BME280;51056;50.330;7.914;2023-01-23T05:15:33;102311.78;;;1.57;91.73
64644;BME280;51056;50.330;7.914;2023-01-23T05:18:36;102320.41;;;1.62;91.56
64644;BME280;51056;50.330;7.914;2023-01-23T05:21:40;102316.94;;;1.57;91.50
64644;BME280;51056;50.330;7.914;2023-01-23T05:24:47;102318.66;;;1.58;91.48
64644;BME280;51056;50.330;7.914;2023-01-23T05:27:50;102315.22;;;1.56;91.46
64644;BME280;51056;50.330;7.914;2023-01-23T05:30:54;102313.50;;;1.58;91.70
64644;BME280;51056;50.330;7.914;2023-01-23T05:34:06;102316.88;;;1.56;91.59
64644;BME280;51056;50.330;7.914;2023-01-23T05:37:13;102315.22;;;1.56;91.86
64644;BME280;51056;50.330;7.914;2023-01-23T05:40:20;102327.91;;;1.44;91.28
64644;BME280;51056;50.330;7.914;2023-01-23T05:44:14;102319.34;;;1.47;91.39
64644;BME280;51056;50.330;7.914;2023-01-23T05:47:26;102344.38;;;1.54;91.71
64644;BME280;51056;50.330;7.914;2023-01-23T05:50:31;102345.25;;;1.54;91.38
64644;BME280;51056;50.330;7.914;2023-01-23T05:53:35;102354.66;;;1.52;91.50
64644;BME280;51056;50.330;7.914;2023-01-23T05:56:38;102352.13;;;1.54;91.41
64644;BME280;51056;50.330;7.914;2023-01-23T06:00:24;102351.25;;;1.53;91.64
64644;BME280;51056;50.330;7.914;2023-01-23T06:04:03;102358.13;;;1.54;91.68
64644;BME280;51056;50.330;7.914;2023-01-23T06:07:25;102357.28;;;1.55;91.40
64644;BME280;51056;50.330;7.914;2023-01-23T06:10:35;102366.78;;;1.56;91.71
64644;BME280;51056;50.330;7.914;2023-01-23T06:13:43;102370.16;;;1.55;91.66
64644;BME280;51056;50.330;7.914;2023-01-23T06:16:56;102371.94;;;1.56;91.71
64644;BME280;51056;50.330;7.914;2023-01-23T06:19:59;102375.31;;;1.55;91.60
64644;BME280;51056;50.330;7.914;2023-01-23T06:23:03;102383.06;;;1.54;91.92
64644;BME280;51056;50.330;7.914;2023-01-23T06:26:11;102383.84;;;1.50;91.93
64644;BME280;51056;50.330;7.914;2023-01-23T06:29:14;102384.72;;;1.50;91.49
64644;BME280;51056;50.330;7.914;2023-01-23T06:32:17;102394.22;;;1.54;91.65
64644;BME280;51056;50.330;7.914;2023-01-23T06:35:21;102399.38;;;1.54;91.70
64644;BME280;51056;50.330;7.914;2023-01-23T06:38:26;102398.56;;;1.57;91.68
64644;BME280;51056;50.330;7.914;2023-01-23T06:41:31;102392.56;;;1.56;91.82
64644;BME280;51056;50.330;7.914;2023-01-23T06:44:39;102397.75;;;1.61;91.58
64644;BME280;51056;50.330;7.914;2023-01-23T06:47:43;102398.56;;;1.58;91.63
64644;BME280;51056;50.330;7.914;2023-01-23T06:50:46;102405.44;;;1.56;91.92
64644;BME280;51056;50.330;7.914;2023-01-23T06:53:55;102401.19;;;1.61;91.66
64644;BME280;51056;50.330;7.914;2023-01-23T06:56:59;102409.88;;;1.67;91.44
64644;BME280;51056;50.330;7.914;2023-01-23T07:00:03;102402.13;;;1.65;91.25
64644;BME280;51056;50.330;7.914;2023-01-23T07:03:10;102411.56;;;1.63;91.35
64644;BME280;51056;50.330;7.914;2023-01-23T07:06:14;102409.88;;;1.67;90.99
64644;BME280;51056;50.330;7.914;2023-01-23T07:09:18;102416.72;;;1.63;91.28
64644;BME280;51056;50.330;7.914;2023-01-23T07:12:29;102413.19;;;1.56;91.34
64644;BME280;51056;50.330;7.914;2023-01-23T07:15:33;102417.38;;;1.53;91.87
64644;BME280;51056;50.330;7.914;2023-01-23T07:18:36;102430.38;;;1.59;91.70
64644;BME280;51056;50.330;7.914;2023-01-23T07:21:43;102430.31;;;1.54;91.78
64644;BME280;51056;50.330;7.914;2023-01-23T07:24:47;102440.72;;;1.60;91.51
64644;BME280;51056;50.330;7.914;2023-01-23T07:27:50;102440.72;;;1.60;91.52
64644;BME280;51056;50.330;7.914;2023-01-23T07:30:54;102446.72;;;1.58;91.51
64644;BME280;51056;50.330;7.914;2023-01-23T07:33:57;102444.94;;;1.54;91.67
64644;BME280;51056;50.330;7.914;2023-01-23T07:37:00;102438.97;;;1.59;91.97
64644;BME280;51056;50.330;7.914;2023-01-23T07:40:04;102446.75;;;1.62;91.74
64644;BME280;51056;50.330;7.914;2023-01-23T07:43:07;102445.13;;;1.66;91.69
64644;BME280;51056;50.330;7.914;2023-01-23T07:46:10;102449.38;;;1.66;91.27
64644;BME280;51056;50.330;7.914;2023-01-23T07:49:14;102441.66;;;1.64;91.55
64644;BME280;51056;50.330;7.914;2023-01-23T07:52:18;102447.66;;;1.63;91.59
64644;BME280;51056;50.330;7.914;2023-01-23T07:55:21;102451.97;;;1.64;91.38
64644;BME280;51056;50.330;7.914;2023-01-23T07:58:25;102458.06;;;1.71;91.43
64644;BME280;51056;50.330;7.914;2023-01-23T08:01:28;102460.66;;;1.69;91.59
64644;BME280;51056;50.330;7.914;2023-01-23T08:04:32;102458.06;;;1.71;91.64
64644;BME280;51056;50.330;7.914;2023-01-23T08:07:35;102462.41;;;1.73;91.46
64644;BME280;51056;50.330;7.914;2023-01-23T08:10:39;102455.66;;;1.81;91.28
64644;BME280;51056;50.330;7.914;2023-01-23T08:13:42;102454.88;;;1.87;90.95
64644;BME280;51056;50.330;7.914;2023-01-23T08:16:50;102465.25;;;1.90;91.10
64644;BME280;51056;50.330;7.914;2023-01-23T08:19:54;102472.16;;;1.94;90.51
64644;BME280;51056;50.330;7.914;2023-01-23T08:22:57;102476.56;;;2.00;90.72
64644;BME280;51056;50.330;7.914;2023-01-23T08:26:03;102479.19;;;2.01;90.18
64644;BME280;51056;50.330;7.914;2023-01-23T08:29:07;102482.63;;;2.03;90.60
64644;BME280;51056;50.330;7.914;2023-01-23T08:32:10;102484.34;;;2.01;90.31
64644;BME280;51056;50.330;7.914;2023-01-23T08:35:15;102484.34;;;2.01;90.50
64644;BME280;51056;50.330;7.914;2023-01-23T08:38:19;102483.47;;;2.02;90.73
64644;BME280;51056;50.330;7.914;2023-01-23T08:41:22;102492.13;;;2.04;90.72
64644;BME280;51056;50.330;7.914;2023-01-23T08:44:26;102501.63;;;2.08;90.73
64644;BME280;51056;50.330;7.914;2023-01-23T08:47:29;102503.38;;;2.09;90.48
64644;BME280;51056;50.330;7.914;2023-01-23T08:50:38;102504.97;;;2.01;89.95
64644;BME280;51056;50.330;7.914;2023-01-23T08:53:41;102510.25;;;2.07;90.17
64644;BME280;51056;50.330;7.914;2023-01-23T08:56:45;102514.53;;;2.08;90.09
64644;BME280;51056;50.330;7.914;2023-01-23T08:59:48;102512.81;;;2.07;89.75
64644;BME280;51056;50.330;7.914;2023-01-23T09:02:52;102512.81;;;2.09;90.12
64644;BME280;51056;50.330;7.914;2023-01-23T09:05:59;102518.84;;;2.09;90.52
64644;BME280;51056;50.330;7.914;2023-01-23T09:09:02;102507.75;;;2.17;90.05
64644;BME280;51056;50.330;7.914;2023-01-23T09:12:06;102514.38;;;1.98;91.35
64644;BME280;51056;50.330;7.914;2023-01-23T09:15:19;102508.63;;;2.16;90.13
64644;BME280;51056;50.330;7.914;2023-01-23T09:19:18;102525.03;;;2.21;89.09
64644;BME280;51056;50.330;7.914;2023-01-23T09:22:48;102515.69;;;2.29;88.58
64644;BME280;51056;50.330;7.914;2023-01-23T09:25:52;102527.81;;;2.33;88.00
64644;BME280;51056;50.330;7.914;2023-01-23T09:28:55;102527.81;;;2.36;87.89
64644;BME280;51056;50.330;7.914;2023-01-23T09:31:58;102527.84;;;2.39;87.36
64644;BME280;51056;50.330;7.914;2023-01-23T09:35:02;102532.16;;;2.39;86.80
64644;BME280;51056;50.330;7.914;2023-01-23T09:38:05;102533.06;;;2.42;86.41
64644;BME280;51056;50.330;7.914;2023-01-23T09:41:15;102535.72;;;2.47;86.00
64644;BME280;51056;50.330;7.914;2023-01-23T09:44:37;102531.47;;;2.50;86.33
64644;BME280;51056;50.330;7.914;2023-01-23T09:47:49;102525.44;;;2.51;86.28
64644;BME280;51056;50.330;7.914;2023-01-23T09:51:00;102527.16;;;2.49;86.67
64644;BME280;51056;50.330;7.914;2023-01-23T09:57:42;102522.78;;;2.45;85.55
64644;BME280;51056;50.330;7.914;2023-01-23T10:00:49;102522.06;;;2.55;85.46
64644;BME280;51056;50.330;7.914;2023-01-23T10:03:57;102519.56;;;2.62;84.31
64644;BME280;51056;50.330;7.914;2023-01-23T10:07:11;102534.34;;;2.72;83.30
64644;BME280;51056;50.330;7.914;2023-01-23T10:16:58;102521.53;;;2.81;81.72
64644;BME280;51056;50.330;7.914;2023-01-23T10:24:00;102516.25;;;2.72;81.39
64644;BME280;51056;50.330;7.914;2023-01-23T10:30:37;102523.09;;;2.70;79.36
64644;BME280;51056;50.330;7.914;2023-01-23T10:41:09;102512.09;;;2.85;78.39
64644;BME280;51056;50.330;7.914;2023-01-23T10:44:18;102515.50;;;2.84;78.57
64644;BME280;51056;50.330;7.914;2023-01-23T10:50:36;102516.44;;;2.90;78.78
64644;BME280;51056;50.330;7.914;2023-01-23T10:53:41;102522.50;;;2.92;78.29
64644;BME280;51056;50.330;7.914;2023-01-23T10:56:55;102513.06;;;2.96;78.58
64644;BME280;51056;50.330;7.914;2023-01-23T11:00:05;102516.59;;;3.02;77.69
64644;BME280;51056;50.330;7.914;2023-01-23T11:06:24;102510.47;;;2.94;76.84
64644;BME280;51056;50.330;7.914;2023-01-23T11:09:28;102507.09;;;3.00;76.74
64644;BME280;51056;50.330;7.914;2023-01-23T11:12:34;102504.59;;;3.08;77.02
64644;BME280;51056;50.330;7.914;2023-01-23T11:15:47;102497.75;;;3.13;76.86
64644;BME280;51056;50.330;7.914;2023-01-23T11:22:01;102487.56;;;3.31;75.91
64644;BME280;51056;50.330;7.914;2023-01-23T11:25:26;102487.59;;;3.33;75.85
64644;BME280;51056;50.330;7.914;2023-01-23T11:28:51;102487.63;;;3.36;75.31
64644;BME280;51056;50.330;7.914;2023-01-23T11:32:04;102487.56;;;3.31;75.30
64644;BME280;51056;50.330;7.914;2023-01-23T11:38:54;102490.16;;;3.30;75.02
64644;BME280;51056;50.330;7.914;2023-01-23T11:42:00;102491.97;;;3.41;74.98
64644;BME280;51056;50.330;7.914;2023-01-23T11:45:12;102493.72;;;3.44;75.32
64644;BME280;51056;50.330;7.914;2023-01-23T11:55:33;102484.38;;;3.60;74.19
64644;BME280;51056;50.330;7.914;2023-01-23T12:08:35;102474.75;;;3.43;75.00
64644;BME280;51056;50.330;7.914;2023-01-23T12:25:28;102471.56;;;3.73;74.63
64644;BME280;51056;50.330;7.914;2023-01-23T12:43:15;102449.16;;;3.79;73.18
64644;BME280;51056;50.330;7.914;2023-01-23T12:47:00;102445.63;;;3.64;74.16
64644;BME280;51056;50.330;7.914;2023-01-23T12:50:35;102442.16;;;3.61;74.14
64644;BME280;51056;50.330;7.914;2023-01-23T12:53:35;102436.19;;;3.71;74.01
64644;BME280;51056;50.330;7.914;2023-01-23T12:56:41;102432.56;;;3.50;74.98
64644;BME280;51056;50.330;7.914;2023-01-23T12:59:57;102434.41;;;3.67;74.91
64644;BME280;51056;50.330;7.914;2023-01-23T13:06:27;102427.19;;;3.23;75.30
64644;BME280;51056;50.330;7.914;2023-01-23T13:13:22;102444.50;;;3.33;74.87
64644;BME280;51056;50.330;7.914;2023-01-23T13:16:28;102442.03;;;3.47;74.78
64644;BME280;51056;50.330;7.914;2023-01-23T13:19:40;102444.72;;;3.58;74.63
64644;BME280;51056;50.330;7.914;2023-01-23T13:26:29;102449.75;;;3.42;75.29
64644;BME280;51056;50.330;7.914;2023-01-23T13:30:13;102447.28;;;3.56;75.10
64644;BME280;51056;50.330;7.914;2023-01-23T13:36:39;102448.84;;;3.37;74.22
64644;BME280;51056;50.330;7.914;2023-01-23T13:40:01;102453.28;;;3.54;74.38
64644;BME280;51056;50.330;7.914;2023-01-23T13:55:45;102445.56;;;3.60;75.71
64644;BME280;51056;50.330;7.914;2023-01-23T13:59:11;102449.81;;;3.48;75.57
64644;BME280;51056;50.330;7.914;2023-01-23T14:06:46;102460.13;;;3.45;76.30
64644;BME280;51056;50.330;7.914;2023-01-23T14:09:54;102463.53;;;3.41;76.18
64644;BME280;51056;50.330;7.914;2023-01-23T14:13:18;102461.91;;;3.53;76.27
64644;BME280;51056;50.330;7.914;2023-01-23T14:16:52;102452.28;;;3.33;75.02
64644;BME280;51056;50.330;7.914;2023-01-23T14:20:00;102460.00;;;3.30;74.68
64644;BME280;51056;50.330;7.914;2023-01-23T14:23:22;102459.06;;;3.25;75.48
64644;BME280;51056;50.330;7.914;2023-01-23T14:26:31;102454.91;;;3.41;76.58
64644;BME280;51056;50.330;7.914;2023-01-23T14:29:39;102454.97;;;3.45;76.61
64644;BME280;51056;50.330;7.914;2023-01-23T14:32:44;102457.59;;;3.52;75.39
64644;BME280;51056;50.330;7.914;2023-01-23T14:35:52;102460.06;;;3.39;76.35
64644;BME280;51056;50.330;7.914;2023-01-23T14:39:02;102459.22;;;3.40;76.25
64644;BME280;51056;50.330;7.914;2023-01-23T14:42:20;102451.34;;;3.26;76.21
64644;BME280;51056;50.330;7.914;2023-01-23T14:45:31;102460.09;;;3.42;75.94
64644;BME280;51056;50.330;7.914;2023-01-23T14:48:40;102460.97;;;3.44;77.55
64644;BME280;51056;50.330;7.914;2023-01-23T14:52:00;102458.28;;;3.29;77.25
64644;BME280;51056;50.330;7.914;2023-01-23T14:55:24;102465.31;;;3.45;76.76
64644;BME280;51056;50.330;7.914;2023-01-23T14:58:29;102464.41;;;3.43;76.40
64644;BME280;51056;50.330;7.914;2023-01-23T15:01:35;102463.53;;;3.44;76.14
64644;BME280;51056;50.330;7.914;2023-01-23T15:04:39;102465.28;;;3.44;76.58
64644;BME280;51056;50.330;7.914;2023-01-23T15:07:59;102461.84;;;3.42;76.47
64644;BME280;51056;50.330;7.914;2023-01-23T15:11:05;102460.91;;;3.37;76.92
64644;BME280;51056;50.330;7.914;2023-01-23T15:14:26;102459.94;;;3.24;76.88
64644;BME280;51056;50.330;7.914;2023-01-23T15:17:34;102462.59;;;3.30;76.86
64644;BME280;51056;50.330;7.914;2023-01-23T15:20:38;102468.59;;;3.26;77.44
64644;BME280;51056;50.330;7.914;2023-01-23T15:23:59;102471.19;;;3.31;77.75
64644;BME280;51056;50.330;7.914;2023-01-23T15:27:31;102467.75;;;3.30;77.36
64644;BME280;51056;50.330;7.914;2023-01-23T15:33:38;102465.22;;;3.36;77.03
64644;BME280;51056;50.330;7.914;2023-01-23T15:40:00;102457.34;;;3.22;78.44
64644;BME280;51056;50.330;7.914;2023-01-23T15:43:13;102450.34;;;3.11;78.95
64644;BME280;51056;50.330;7.914;2023-01-23T15:46:17;102453.81;;;3.14;78.90
64644;BME280;51056;50.330;7.914;2023-01-23T15:49:21;102459.88;;;3.16;79.63
64644;BME280;51056;50.330;7.914;2023-01-23T15:52:29;102458.19;;;3.20;79.63
64644;BME280;51056;50.330;7.914;2023-01-23T15:55:32;102459.00;;;3.19;78.64
64644;BME280;51056;50.330;7.914;2023-01-23T15:58:36;102458.16;;;3.18;78.68
64644;BME280;51056;50.330;7.914;2023-01-23T16:01:41;102464.19;;;3.19;79.99
64644;BME280;51056;50.330;7.914;2023-01-23T16:04:45;102466.75;;;3.13;81.27
64644;BME280;51056;50.330;7.914;2023-01-23T16:07:51;102468.47;;;3.14;80.92
64644;BME280;51056;50.330;7.914;2023-01-23T16:10:56;102470.22;;;3.16;79.32
64644;BME280;51056;50.330;7.914;2023-01-23T16:14:00;102465.94;;;3.20;80.92
64644;BME280;51056;50.330;7.914;2023-01-23T16:17:03;102473.44;;;2.95;81.73
64644;BME280;51056;50.330;7.914;2023-01-23T16:20:20;102477.88;;;3.07;80.61
64644;BME280;51056;50.330;7.914;2023-01-23T16:23:26;102473.59;;;3.11;80.93
64644;BME280;51056;50.330;7.914;2023-01-23T16:26:30;102479.56;;;3.05;81.88
64644;BME280;51056;50.330;7.914;2023-01-23T16:29:33;102479.53;;;3.02;81.61
64644;BME280;51056;50.330;7.914;2023-01-23T16:32:37;102478.53;;;2.89;80.15
64644;BME280;51056;50.330;7.914;2023-01-23T16:35:41;102482.06;;;2.94;79.85
64644;BME280;51056;50.330;7.914;2023-01-23T16:38:52;102475.06;;;2.84;77.94
64644;BME280;51056;50.330;7.914;2023-01-23T16:42:05;102487.25;;;2.97;77.78
64644;BME280;51056;50.330;7.914;2023-01-23T16:45:20;102489.00;;;3.01;77.61
64644;BME280;51056;50.330;7.914;2023-01-23T16:48:28;102496.47;;;2.75;75.88
64644;BME280;51056;50.330;7.914;2023-01-23T16:51:32;102501.75;;;2.86;75.95
64644;BME280;51056;50.330;7.914;2023-01-23T16:54:36;102499.31;;;2.98;75.64
64644;BME280;51056;50.330;7.914;2023-01-23T16:57:39;102496.66;;;2.92;76.22
64644;BME280;51056;50.330;7.914;2023-01-23T17:00:42;102492.50;;;3.03;76.72
64644;BME280;51056;50.330;7.914;2023-01-23T17:03:54;102493.38;;;3.07;75.84
64644;BME280;51056;50.330;7.914;2023-01-23T17:06:59;102500.31;;;3.10;75.70
64644;BME280;51056;50.330;7.914;2023-01-23T17:10:03;102497.63;;;3.00;75.40
64644;BME280;51056;50.330;7.914;2023-01-23T17:13:08;102496.72;;;2.97;76.39
64644;BME280;51056;50.330;7.914;2023-01-23T17:16:13;102498.47;;;2.99;76.42
64644;BME280;51056;50.330;7.914;2023-01-23T17:19:25;102490.75;;;3.02;77.24
64644;BME280;51056;50.330;7.914;2023-01-23T17:22:33;102495.00;;;2.99;78.23
64644;BME280;51056;50.330;7.914;2023-01-23T17:25:39;102496.66;;;2.92;77.05
64644;BME280;51056;50.330;7.914;2023-01-23T17:28:47;102493.31;;;3.02;76.16
64644;BME280;51056;50.330;7.914;2023-01-23T17:31:51;102489.00;;;3.01;77.69
64644;BME280;51056;50.330;7.914;2023-01-23T17:35:01;102485.56;;;3.02;78.66
64644;BME280;51056;50.330;7.914;2023-01-23T17:38:20;102494.03;;;2.89;79.82
64644;BME280;51056;50.330;7.914;2023-01-23T17:41:25;102489.78;;;2.93;80.04
64644;BME280;51056;50.330;7.914;2023-01-23T17:44:30;102494.13;;;2.95;79.46
64644;BME280;51056;50.330;7.914;2023-01-23T17:47:34;102485.44;;;2.87;79.40
64644;BME280;51056;50.330;7.914;2023-01-23T17:50:38;102482.09;;;2.97;79.44
64644;BME280;51056;50.330;7.914;2023-01-23T17:53:43;102475.19;;;2.98;79.35
64644;BME280;51056;50.330;7.914;2023-01-23T17:56:47;102472.56;;;2.93;80.11
64644;BME280;51056;50.330;7.914;2023-01-23T17:59:51;102475.94;;;2.86;78.63
64644;BME280;51056;50.330;7.914;2023-01-23T18:02:58;102454.50;;;2.95;78.30
64644;BME280;51056;50.330;7.914;2023-01-23T18:06:02;102463.94;;;2.91;78.85
64644;BME280;51056;50.330;7.914;2023-01-23T18:09:06;102456.16;;;2.88;79.83
64644;BME280;51056;50.330;7.914;2023-01-23T18:12:16;102458.84;;;2.97;78.84
64644;BME280;51056;50.330;7.914;2023-01-23T18:15:30;102450.25;;;3.01;77.72
64644;BME280;51056;50.330;7.914;2023-01-23T18:18:38;102457.09;;;2.99;77.13
64644;BME280;51056;50.330;7.914;2023-01-23T18:21:44;102457.03;;;2.93;76.98
64644;BME280;51056;50.330;7.914;2023-01-23T18:24:48;102457.19;;;3.04;76.78
64644;BME280;51056;50.330;7.914;2023-01-23T18:27:53;102452.91;;;3.08;76.72
64644;BME280;51056;50.330;7.914;2023-01-23T18:31:09;102460.72;;;3.15;77.89
64644;BME280;51056;50.330;7.914;2023-01-23T18:41:22;102472.81;;;3.16;78.09
64644;BME280;51056;50.330;7.914;2023-01-23T18:44:32;102480.53;;;3.15;76.63
64644;BME280;51056;50.330;7.914;2023-01-23T18:47:37;102474.47;;;3.10;76.12
64644;BME280;51056;50.330;7.914;2023-01-23T18:54:04;102471.97;;;3.22;77.64
64644;BME280;51056;50.330;7.914;2023-01-23T18:57:35;102470.25;;;3.21;77.01